Time;durP1;ratioP1;P1;durP2;ratioP2;P2;SDS_P1;SDS_P2;PMS_P1;PMS_P2;Temp;Humidity;BMP_temperature;BMP_pressure;BME280_temperature;BME280_humidity;BME280_pressure;Samples;Min_cycle;Max_cycle;Signal;HPM_P1;HPM_P2
2021/06/26 00:00:40;;;;;;;15.52;12.05;;;;;;;-139.48;100.00;61774.03;5053877;28;20055;-63
2021/06/26 00:03:26;;;;;;;16.17;12.73;;;;;;;-139.48;100.00;61774.03;5052818;28;20094;-64
2021/06/26 00:06:10;;;;;;;15.45;12.63;;;;;;;-139.48;100.00;61774.03;5052961;28;20078;-64
2021/06/26 00:08:54;;;;;;;19.88;13.45;;;;;;;-139.48;100.00;61774.03;5053733;28;20047;-64
2021/06/26 00:11:38;;;;;;;16.42;13.07;;;;;;;-139.48;100.00;61774.03;5053606;28;20528;-64
2021/06/26 00:14:22;;;;;;;17.60;12.85;;;;;;;-139.48;100.00;61774.03;5052933;28;20064;-64
2021/06/26 00:17:07;;;;;;;16.90;13.68;;;;;;;-139.48;100.00;61774.03;5039025;28;20071;-64
2021/06/26 00:19:51;;;;;;;19.90;13.82;;;;;;;-139.48;100.00;61774.03;5039081;28;20084;-62
2021/06/26 00:22:35;;;;;;;17.00;13.50;;;;;;;-139.48;100.00;61774.03;5052717;28;20047;-64
2021/06/26 00:25:19;;;;;;;21.33;13.55;;;;;;;-139.48;100.00;61774.03;5052620;28;20145;-64
2021/06/26 00:28:03;;;;;;;21.98;13.82;;;;;;;-139.48;100.00;61774.03;5052694;28;20048;-63
2021/06/26 00:30:47;;;;;;;18.45;13.32;;;;;;;-139.48;100.00;61774.03;5053554;28;20051;-64
2021/06/26 00:33:31;;;;;;;18.55;12.52;;;;;;;-139.48;100.00;61774.03;5052324;28;20072;-64
2021/06/26 00:36:14;;;;;;;17.80;14.10;;;;;;;-139.48;100.00;61774.03;5052561;28;20128;-64
2021/06/26 00:38:58;;;;;;;16.35;13.52;;;;;;;-139.48;100.00;61774.03;5053806;28;20121;-64
2021/06/26 00:41:42;;;;;;;16.90;13.45;;;;;;;-139.48;100.00;61774.03;5052212;28;20126;-64
2021/06/26 00:44:27;;;;;;;20.73;14.18;;;;;;;-139.48;100.00;61774.03;5053350;28;20052;-64
2021/06/26 00:47:12;;;;;;;17.55;13.85;;;;;;;-139.48;100.00;61774.03;5052705;28;20102;-64
2021/06/26 00:49:57;;;;;;;18.75;13.05;;;;;;;-139.48;100.00;61774.03;5051704;28;20090;-64
2021/06/26 00:52:42;;;;;;;18.58;14.15;;;;;;;-139.48;100.00;61774.03;5052950;28;20055;-64
2021/06/26 00:55:27;;;;;;;14.90;12.80;;;;;;;-139.48;100.00;61774.03;5052048;28;20047;-64
2021/06/26 00:58:11;;;;;;;21.23;13.35;;;;;;;-139.48;100.00;61774.03;5053285;28;20102;-64
2021/06/26 01:00:55;;;;;;;19.35;14.23;;;;;;;-139.48;100.00;61774.03;5038208;28;20052;-64
2021/06/26 01:03:38;;;;;;;22.75;14.60;;;;;;;-139.48;100.00;61774.03;5051932;28;20098;-64
2021/06/26 01:06:22;;;;;;;18.42;13.15;;;;;;;-139.48;100.00;61774.03;5053259;28;20102;-63
2021/06/26 01:09:06;;;;;;;18.83;12.48;;;;;;;-139.48;100.00;61774.03;5053226;28;20125;-64
2021/06/26 01:11:57;;;;;;;18.00;14.13;;;;;;;-139.48;100.00;61774.03;5052814;28;20095;-64
2021/06/26 01:14:41;;;;;;;23.17;14.60;;;;;;;-139.48;100.00;61774.03;5051917;28;20128;-64
2021/06/26 01:17:24;;;;;;;18.80;13.70;;;;;;;-139.48;100.00;61774.03;5051894;28;20418;-64
2021/06/26 01:20:10;;;;;;;23.85;12.93;;;;;;;-139.48;100.00;61774.03;5051814;28;20072;-64
2021/06/26 01:22:57;;;;;;;18.33;14.15;;;;;;;-139.48;100.00;61774.03;5052996;28;20563;-64
2021/06/26 01:25:41;;;;;;;19.30;13.30;;;;;;;-139.48;100.00;61774.03;5052074;28;20132;-64
2021/06/26 01:28:25;;;;;;;18.55;13.25;;;;;;;-139.48;100.00;61774.03;5053037;28;20593;-64
2021/06/26 01:31:09;;;;;;;19.00;14.57;;;;;;;-139.48;100.00;61774.03;5051658;28;20056;-64
2021/06/26 01:33:54;;;;;;;17.88;13.13;;;;;;;-139.48;100.00;61774.03;5051879;28;20124;-64
2021/06/26 01:36:38;;;;;;;17.73;13.25;;;;;;;-139.48;100.00;61774.03;5051766;28;20060;-64
2021/06/26 01:39:22;;;;;;;18.17;13.35;;;;;;;-139.48;100.00;61774.03;5051642;28;20095;-64
2021/06/26 01:42:07;;;;;;;19.15;14.38;;;;;;;-139.48;100.00;61774.03;5053196;28;20103;-63
2021/06/26 01:44:51;;;;;;;20.60;14.25;;;;;;;-139.48;100.00;61774.03;5053131;28;20136;-64
2021/06/26 01:47:35;;;;;;;22.80;16.45;;;;;;;-139.48;100.00;61774.03;5052580;28;20059;-64
2021/06/26 01:50:20;;;;;;;23.67;15.70;;;;;;;-139.48;100.00;61774.03;5052825;28;20103;-64
2021/06/26 01:53:04;;;;;;;18.40;14.75;;;;;;;-139.48;100.00;61774.03;5052429;28;20036;-64
2021/06/26 01:55:51;;;;;;;19.38;13.70;;;;;;;-139.48;100.00;61774.03;5037382;28;20051;-63
2021/06/26 01:58:35;;;;;;;15.60;12.85;;;;;;;-139.48;100.00;61774.03;5051758;28;20126;-64
2021/06/26 02:01:19;;;;;;;17.73;13.98;;;;;;;-139.48;100.00;61774.03;5053411;28;20091;-64
2021/06/26 02:04:04;;;;;;;24.67;13.35;;;;;;;-139.48;100.00;61774.03;5056352;28;20420;-63
2021/06/26 02:06:48;;;;;;;17.58;13.02;;;;;;;-139.48;100.00;61774.03;5041220;28;20047;-64
2021/06/26 02:09:32;;;;;;;26.77;13.60;;;;;;;-139.48;100.00;61774.03;5055335;28;20102;-64
2021/06/26 02:12:16;;;;;;;28.20;13.60;;;;;;;-139.48;100.00;61774.03;5055154;28;20190;-63
2021/06/26 02:15:00;;;;;;;17.08;12.50;;;;;;;-139.48;100.00;61774.03;5056019;28;20087;-64
2021/06/26 02:17:44;;;;;;;20.15;13.48;;;;;;;-139.48;100.00;61774.03;5055411;28;20047;-64
2021/06/26 02:20:28;;;;;;;27.73;14.95;;;;;;;-139.48;100.00;61774.03;5056065;28;20129;-63
2021/06/26 02:23:12;;;;;;;18.33;12.93;;;;;;;-139.48;100.00;61774.03;5054855;28;20087;-64
2021/06/26 02:25:56;;;;;;;17.88;12.73;;;;;;;-139.48;100.00;61774.03;5054974;28;20047;-64
2021/06/26 02:28:40;;;;;;;19.38;13.32;;;;;;;-139.48;100.00;61774.03;5055232;28;20048;-64
2021/06/26 02:31:24;;;;;;;19.33;14.02;;;;;;;-139.48;100.00;61774.03;5054598;28;20052;-64
2021/06/26 02:34:12;;;;;;;24.02;14.90;;;;;;;-139.48;100.00;61774.03;5054605;28;20047;-64
2021/06/26 02:36:57;;;;;;;18.23;13.80;;;;;;;-139.48;100.00;61774.03;5054800;28;20087;-63
2021/06/26 02:39:40;;;;;;;20.30;14.45;;;;;;;-139.48;100.00;61774.03;5054973;28;20051;-64
2021/06/26 02:42:25;;;;;;;;;;;;;;;-139.48;100.00;61774.03;5054699;28;20043;-64
2021/06/26 02:45:10;;;;;;;17.42;12.55;;;;;;;-139.48;100.00;61774.03;5040542;28;19919;-64
2021/06/26 02:47:53;;;;;;;21.73;13.65;;;;;;;-139.48;100.00;61774.03;5054552;28;20049;-64
2021/06/26 02:50:37;;;;;;;16.08;12.35;;;;;;;-139.48;100.00;61774.03;5054471;28;20052;-64
2021/06/26 02:53:21;;;;;;;23.15;12.93;;;;;;;-139.48;100.00;61774.03;5054213;28;20094;-64
2021/06/26 02:56:05;;;;;;;18.33;13.35;;;;;;;-139.48;100.00;61774.03;5055422;28;20072;-64
2021/06/26 02:58:49;;;;;;;18.27;12.93;;;;;;;-139.48;100.00;61774.03;5054131;28;20178;-64
2021/06/26 03:01:33;;;;;;;17.35;14.23;;;;;;;-139.48;100.00;61774.03;5055513;28;20044;-64
2021/06/26 03:04:19;;;;;;;15.52;13.52;;;;;;;-139.48;100.00;61774.03;5053981;28;20581;-64
2021/06/26 03:07:03;;;;;;;15.82;13.13;;;;;;;-139.48;100.00;61774.03;5040237;28;20048;-64
2021/06/26 03:09:47;;;;;;;17.33;13.30;;;;;;;-139.48;100.00;61774.03;5055142;28;20569;-64
2021/06/26 03:12:31;;;;;;;14.95;12.32;;;;;;;-139.48;100.00;61774.03;5054224;28;20055;-64
2021/06/26 03:15:15;;;;;;;18.13;13.10;;;;;;;-139.48;100.00;61774.03;5053755;28;20540;-64
2021/06/26 03:17:59;;;;;;;20.20;13.57;;;;;;;-139.48;100.00;61774.03;5055019;28;20501;-64
2021/06/26 03:20:43;;;;;;;16.33;12.15;;;;;;;-139.48;100.00;61774.03;5053675;28;20047;-64
2021/06/26 03:23:27;;;;;;;16.92;11.93;;;;;;;-139.48;100.00;61774.03;5053731;28;20047;-62
2021/06/26 03:26:11;;;;;;;16.40;11.93;;;;;;;-139.48;100.00;61774.03;5053853;28;20048;-65
2021/06/26 03:28:55;;;;;;;15.13;12.07;;;;;;;-139.48;100.00;61774.03;5053525;28;20437;-64
2021/06/26 03:31:39;;;;;;;20.42;12.80;;;;;;;-139.48;100.00;61774.03;5053589;28;20568;-63
2021/06/26 03:34:23;;;;;;;13.80;11.75;;;;;;;-139.48;100.00;61774.03;5053941;28;20051;-64
2021/06/26 03:37:07;;;;;;;15.13;10.88;;;;;;;-139.48;100.00;61774.03;5053557;28;20052;-64
2021/06/26 03:39:50;;;;;;;15.48;11.32;;;;;;;-139.48;100.00;61774.03;5053342;28;20079;-64
2021/06/26 03:42:35;;;;;;;17.85;11.60;;;;;;;-139.48;100.00;61774.03;5053139;28;20540;-64
2021/06/26 03:45:19;;;;;;;15.50;11.30;;;;;;;-139.48;100.00;61774.03;5053422;28;20051;-64
2021/06/26 03:48:03;;;;;;;17.23;11.07;;;;;;;-139.48;100.00;61774.03;5054427;28;20155;-64
2021/06/26 03:50:47;;;;;;;16.48;11.95;;;;;;;-139.48;100.00;61774.03;5053098;28;20044;-64
2021/06/26 03:53:31;;;;;;;14.38;12.30;;;;;;;-139.48;100.00;61774.03;5054046;28;20102;-64
2021/06/26 03:56:15;;;;;;;13.30;11.40;;;;;;;-139.48;100.00;61774.03;5053481;28;20118;-64
2021/06/26 03:59:00;;;;;;;12.95;11.50;;;;;;;-139.48;100.00;61774.03;5039109;28;20175;-64
2021/06/26 04:01:44;;;;;;;18.23;11.18;;;;;;;-139.48;100.00;61774.03;5052798;28;20044;-63
2021/06/26 04:04:28;;;;;;;16.95;12.02;;;;;;;-139.48;100.00;61774.03;5039010;28;20136;-64
2021/06/26 04:07:12;;;;;;;16.40;11.07;;;;;;;-139.48;100.00;61774.03;5039220;28;20128;-64
2021/06/26 04:09:55;;;;;;;11.98;10.43;;;;;;;-139.48;100.00;61774.03;5052713;28;20098;-64
2021/06/26 04:12:39;;;;;;;12.65;10.50;;;;;;;-139.48;100.00;61774.03;5052579;28;20068;-64
2021/06/26 04:15:23;;;;;;;13.48;10.98;;;;;;;-139.48;100.00;61774.03;5052874;28;20075;-64
2021/06/26 04:18:07;;;;;;;13.75;10.93;;;;;;;-139.48;100.00;61774.03;5052574;28;20087;-63
2021/06/26 04:20:51;;;;;;;13.25;10.40;;;;;;;-139.48;100.00;61774.03;5052614;28;20484;-64
2021/06/26 04:23:35;;;;;;;11.93;10.05;;;;;;;-139.48;100.00;61774.03;5052452;28;20069;-64
2021/06/26 04:26:19;;;;;;;17.77;10.80;;;;;;;-139.48;100.00;61774.03;5038313;28;20470;-64
2021/06/26 04:29:03;;;;;;;14.55;10.20;;;;;;;-139.48;100.00;61774.03;5038386;28;20043;-64
2021/06/26 04:31:46;;;;;;;12.98;10.43;;;;;;;-139.48;100.00;61774.03;5052639;28;20047;-64
2021/06/26 04:34:30;;;;;;;16.17;10.75;;;;;;;-139.48;100.00;61774.03;5038570;28;20048;-64
2021/06/26 04:37:14;;;;;;;12.43;9.93;;;;;;;-139.48;100.00;61774.03;5052322;28;20056;-64
2021/06/26 04:39:58;;;;;;;13.27;10.40;;;;;;;-139.48;100.00;61774.03;5053826;28;20467;-64
2021/06/26 04:42:43;;;;;;;18.30;11.82;;;;;;;-139.48;100.00;61774.03;5052131;28;20120;-64
2021/06/26 04:45:26;;;;;;;;;;;;;;;-139.48;100.00;61774.03;5038609;28;20181;-64
2021/06/26 04:48:11;;;;;;;11.33;10.10;;;;;;;-139.48;100.00;61774.03;5052194;28;19977;-64
2021/06/26 04:50:58;;;;;;;13.73;10.40;;;;;;;-139.48;100.00;61774.03;5052299;28;20103;-64
2021/06/26 04:53:42;;;;;;;12.23;10.05;;;;;;;-139.48;100.00;61774.03;5052035;28;20127;-64
2021/06/26 04:56:26;;;;;;;16.40;10.88;;;;;;;-139.48;100.00;61774.03;5052332;28;20128;-64
2021/06/26 04:59:10;;;;;;;12.45;10.23;;;;;;;-139.48;100.00;61774.03;5053309;28;20098;-64
2021/06/26 05:01:54;;;;;;;12.90;9.75;;;;;;;-139.48;100.00;61774.03;5038371;28;20044;-64
2021/06/26 05:04:38;;;;;;;12.88;10.48;;;;;;;-139.48;100.00;61774.03;5053232;28;20048;-64
2021/06/26 05:07:22;;;;;;;13.73;10.45;;;;;;;-139.48;100.00;61774.03;5053019;28;20170;-64
2021/06/26 05:10:06;;;;;;;14.02;10.07;;;;;;;-139.48;100.00;61774.03;5038101;28;20154;-64
2021/06/26 05:12:51;;;;;;;11.20;9.88;;;;;;;-139.48;100.00;61774.03;5053100;28;20052;-62
2021/06/26 05:15:35;;;;;;;10.82;9.68;;;;;;;-139.48;100.00;61774.03;5052211;28;20425;-64
2021/06/26 05:18:19;;;;;;;15.40;10.65;;;;;;;-139.48;100.00;61774.03;5051860;28;20464;-64
2021/06/26 05:21:05;;;;;;;13.43;9.90;;;;;;;-139.48;100.00;61774.03;5052123;28;20102;-64
2021/06/26 05:23:49;;;;;;;12.95;10.27;;;;;;;-139.48;100.00;61774.03;5051785;28;20155;-64
2021/06/26 05:26:33;;;;;;;11.27;9.50;;;;;;;-139.48;100.00;61774.03;5052030;28;20103;-64
2021/06/26 05:29:17;;;;;;;13.32;10.25;;;;;;;-139.48;100.00;61774.03;5051847;28;20049;-64
2021/06/26 05:32:02;;;;;;;12.38;10.40;;;;;;;-139.48;100.00;61774.03;5051576;28;20052;-65
2021/06/26 05:34:46;;;;;;;14.73;11.38;;;;;;;-139.48;100.00;61774.03;5051921;28;20132;-64
2021/06/26 05:37:30;;;;;;;17.45;12.68;;;;;;;-139.48;100.00;61774.03;5056688;28;20501;-65
2021/06/26 05:40:14;;;;;;;16.02;13.35;;;;;;;-139.48;100.00;61774.03;5056864;28;20094;-64
2021/06/26 05:42:58;;;;;;;20.25;16.23;;;;;;;-139.48;100.00;61774.03;5056340;28;20175;-64
2021/06/26 05:45:42;;;;;;;16.30;13.57;;;;;;;-139.48;100.00;61774.03;5055811;28;20048;-65
2021/06/26 05:48:26;;;;;;;17.08;12.82;;;;;;;-139.48;100.00;61774.03;5041598;28;20543;-64
2021/06/26 05:51:14;;;;;;;16.25;13.10;;;;;;;-139.48;100.00;61774.03;5056655;28;20047;-64
2021/06/26 05:53:58;;;;;;;14.32;11.50;;;;;;;-139.48;100.00;61774.03;5055320;28;20055;-64
2021/06/26 05:56:42;;;;;;;14.75;11.63;;;;;;;-139.48;100.00;61774.03;5055592;28;20079;-64
2021/06/26 05:59:26;;;;;;;14.40;11.32;;;;;;;-139.48;100.00;61774.03;5056540;28;20052;-64
2021/06/26 06:02:13;;;;;;;15.57;11.82;;;;;;;-139.48;100.00;61774.03;5056364;28;20044;-64
2021/06/26 06:04:57;;;;;;;14.43;10.75;;;;;;;-139.48;100.00;61774.03;5056160;28;20068;-64
2021/06/26 06:07:45;;;;;;;13.55;10.52;;;;;;;-139.48;100.00;61774.03;5056336;28;20052;-65
2021/06/26 06:10:28;;;;;;;13.85;11.00;;;;;;;-139.48;100.00;61774.03;5055239;28;20130;-64
2021/06/26 06:13:14;;;;;;;11.50;9.82;;;;;;;-139.48;100.00;61774.03;5054976;28;20091;-64
2021/06/26 06:15:58;;;;;;;14.38;10.10;;;;;;;-139.48;100.00;61774.03;5041302;28;20079;-64
2021/06/26 06:18:42;;;;;;;10.93;9.70;;;;;;;-139.48;100.00;61774.03;5056097;28;20051;-63
2021/06/26 06:21:26;;;;;;;17.63;10.55;;;;;;;-139.48;100.00;61774.03;5040672;28;20048;-64
2021/06/26 06:24:10;;;;;;;11.43;10.05;;;;;;;-139.48;100.00;61774.03;5041237;28;20068;-64
2021/06/26 06:26:54;;;;;;;13.90;10.05;;;;;;;-139.48;100.00;61774.03;5056021;28;20048;-64
2021/06/26 06:29:38;;;;;;;13.35;10.52;;;;;;;-139.48;100.00;61774.03;5056037;28;20048;-64
2021/06/26 06:32:22;;;;;;;13.20;10.50;;;;;;;-139.48;100.00;61774.03;5054808;28;20110;-64
2021/06/26 06:35:07;;;;;;;14.40;10.63;;;;;;;-139.48;100.00;61774.03;5040771;28;20048;-64
2021/06/26 06:37:51;;;;;;;13.40;10.60;;;;;;;-139.48;100.00;61774.03;5054661;28;20111;-64
2021/06/26 06:40:35;;;;;;;15.70;11.10;;;;;;;-139.48;100.00;61774.03;5055616;28;20072;-64
2021/06/26 06:43:19;;;;;;;12.93;10.70;;;;;;;-139.48;100.00;61774.03;5055163;28;20043;-64
2021/06/26 06:46:05;;;;;;;16.92;10.95;;;;;;;-139.48;100.00;61774.03;5054315;28;20095;-64
2021/06/26 06:48:50;;;;;;;14.90;10.90;;;;;;;-139.48;100.00;61774.03;5053299;28;20048;-64
2021/06/26 06:51:34;;;;;;;14.90;10.80;;;;;;;-139.48;100.00;61774.03;5055176;28;20052;-63
2021/06/26 06:54:18;;;;;;;13.80;11.13;;;;;;;-139.48;100.00;61774.03;5055183;28;20051;-64
2021/06/26 06:57:02;;;;;;;12.52;10.70;;;;;;;-139.48;100.00;61774.03;5054350;28;20118;-64
2021/06/26 06:59:45;;;;;;;13.68;9.98;;;;;;;-139.48;100.00;61774.03;5055058;28;20060;-64
2021/06/26 07:02:29;;;;;;;14.70;10.50;;;;;;;-139.48;100.00;61774.03;5055475;28;20086;-64
2021/06/26 07:05:13;;;;;;;14.65;10.23;;;;;;;-139.48;100.00;61774.03;5053937;28;20469;-64
2021/06/26 07:07:57;;;;;;;14.23;10.48;;;;;;;-139.48;100.00;61774.03;5054007;28;20052;-63
2021/06/26 07:10:42;;;;;;;;;;;;;;;-139.48;100.00;61774.03;5054912;28;20462;-64
2021/06/26 07:13:25;;;;;;;10.68;9.23;;;;;;;-139.48;100.00;61774.03;5053867;28;19943;-64
2021/06/26 07:16:09;;;;;;;14.13;9.27;;;;;;;-139.48;100.00;61774.03;5053403;28;20051;-64
2021/06/26 07:18:53;;;;;;;;;;;;;;;-139.48;100.00;61774.03;5039836;28;20071;-64
2021/06/26 07:21:37;;;;;;;13.77;11.03;;;;;;;-139.48;100.00;61774.03;5053301;28;19957;-63
2021/06/26 07:24:21;;;;;;;10.98;9.32;;;;;;;-139.48;100.00;61774.03;5054704;28;20048;-64
2021/06/26 07:27:05;;;;;;;14.10;9.63;;;;;;;-139.48;100.00;61774.03;5053402;28;20162;-65
2021/06/26 07:29:49;;;;;;;12.23;9.77;;;;;;;-139.48;100.00;61774.03;5053154;28;20051;-64
2021/06/26 07:32:33;;;;;;;;;;;;;;;-139.48;100.00;61774.03;5039251;28;20040;-64
2021/06/26 07:35:17;;;;;;;12.13;9.60;;;;;;;-139.48;100.00;61774.03;5039227;28;19920;-64
2021/06/26 07:38:00;;;;;;;14.48;10.90;;;;;;;-139.48;100.00;61774.03;5054019;28;20052;-64
2021/06/26 07:40:44;;;;;;;10.07;9.07;;;;;;;-139.48;100.00;61774.03;5054246;28;20087;-64
2021/06/26 07:43:28;;;;;;;11.07;9.52;;;;;;;-139.48;100.00;61774.03;5053103;28;20067;-64
2021/06/26 07:46:13;;;;;;;16.00;9.02;;;;;;;-139.48;100.00;61774.03;5082627;22;20118;-69
2021/06/26 07:48:57;;;;;;;11.50;9.45;;;;;;;-139.48;100.00;61774.03;5073945;28;20070;-68
2021/06/26 07:51:41;;;;;;;11.10;9.45;;;;;;;-139.48;100.00;61774.03;5073577;28;20051;-68
2021/06/26 07:54:24;;;;;;;14.00;9.35;;;;;;;-139.48;100.00;61774.03;5072419;28;20504;-68
2021/06/26 07:57:08;;;;;;;9.43;8.35;;;;;;;-139.48;100.00;61774.03;5072410;28;20520;-68
2021/06/26 07:59:52;;;;;;;;;;;;;;;-139.48;100.00;61774.03;5058874;28;20051;-68
2021/06/26 08:02:36;;;;;;;10.83;8.47;;;;;;;-139.48;100.00;61774.03;5073226;28;19935;-68
2021/06/26 08:05:20;;;;;;;;;;;;;;;-139.48;100.00;61774.03;5072755;28;20044;-68
2021/06/26 08:08:04;;;;;;;11.80;8.38;;;;;;;-139.48;100.00;61774.03;5073588;28;19961;-68
2021/06/26 08:10:48;;;;;;;;;;;;;;;-139.48;100.00;61774.03;5072542;28;20169;-66
2021/06/26 08:13:32;;;;;;;14.18;8.52;;;;;;;-139.48;100.00;61774.03;5072407;28;19923;-68
2021/06/26 08:16:16;;;;;;;;;;;;;;;-139.48;100.00;61774.03;5058117;28;20051;-68
2021/06/26 08:19:00;;;;;;;14.57;8.88;;;;;;;-139.48;100.00;61774.03;5072184;28;19919;-67
2021/06/26 08:21:46;;;;;;;12.20;8.93;;;;;;;-139.48;100.00;61774.03;5071936;28;20048;-68
2021/06/26 08:24:30;;;;;;;13.23;8.70;;;;;;;-139.48;100.00;61774.03;5072062;28;20094;-68
2021/06/26 08:27:14;;;;;;;11.02;8.90;;;;;;;-139.48;100.00;61774.03;5072990;28;20117;-68
2021/06/26 08:29:58;;;;;;;8.95;8.05;;;;;;;-139.48;100.00;61774.03;5072205;28;20102;-68
2021/06/26 08:32:43;;;;;;;9.00;8.10;;;;;;;-139.48;100.00;61774.03;5071961;28;20051;-68
2021/06/26 08:35:27;;;;;;;9.98;8.18;;;;;;;-139.48;100.00;61774.03;5071574;28;20128;-68
2021/06/26 08:38:11;;;;;;;;;;;;;;;-139.48;100.00;61774.03;5072267;28;20093;-67
2021/06/26 08:40:56;;;;;;;10.20;8.38;;;;;;;-139.48;100.00;61774.03;5073164;28;19920;-68
2021/06/26 08:43:41;;;;;;;9.98;8.45;;;;;;;-139.48;100.00;61774.03;5071591;28;20047;-68
2021/06/26 08:46:26;;;;;;;11.20;8.10;;;;;;;-139.48;100.00;61774.03;5071447;28;20102;-68
2021/06/26 08:49:10;;;;;;;8.68;7.00;;;;;;;-139.48;100.00;61774.03;5057277;28;20468;-68
2021/06/26 08:51:55;;;;;;;9.35;7.35;;;;;;;-139.48;100.00;61774.03;5071503;28;20047;-68
2021/06/26 08:54:38;;;;;;;9.88;7.78;;;;;;;-139.48;100.00;61774.03;5072618;28;20048;-68
2021/06/26 08:57:26;;;;;;;;;;;;;;;-139.48;100.00;61774.03;5057598;28;20425;-68
2021/06/26 09:00:13;;;;;;;7.97;7.22;;;;;;;-139.48;100.00;61774.03;5072623;28;20269;-68
2021/06/26 09:03:10;;;;;;;11.40;7.45;;;;;;;-139.48;100.00;61774.03;5072878;28;20048;-68
2021/06/26 09:06:03;;;;;;;9.23;7.53;;;;;;;-139.48;100.00;61774.03;5071558;28;20079;-68
2021/06/26 09:08:49;;;;;;;7.65;6.85;;;;;;;-139.48;100.00;61774.03;5070975;28;20086;-68
2021/06/26 09:11:33;;;;;;;7.90;7.10;;;;;;;-139.48;100.00;61774.03;5073579;28;20176;-68
2021/06/26 09:14:19;;;;;;;7.80;6.68;;;;;;;-139.48;100.00;61774.03;5076664;28;20043;-68
2021/06/26 09:17:04;;;;;;;7.75;6.80;;;;;;;-139.48;100.00;61774.03;5061253;28;20059;-68
2021/06/26 09:19:55;;;;;;;7.88;7.07;;;;;;;-139.48;100.00;61774.03;5075435;28;20358;-68
2021/06/26 09:22:43;;;;;;;7.60;6.80;;;;;;;-139.48;100.00;61774.03;5076439;28;20058;-67
2021/06/26 09:25:30;;;;;;;7.57;6.80;;;;;;;-139.48;100.00;61774.03;5075180;28;20105;-67
2021/06/26 09:28:23;;;;;;;10.30;6.60;;;;;;;-139.48;100.00;61774.03;5074982;28;20154;-68
2021/06/26 09:31:17;;;;;;;8.40;7.40;;;;;;;-139.48;100.00;61774.03;5076070;28;20162;-68
2021/06/26 09:34:03;;;;;;;11.18;7.50;;;;;;;-139.48;100.00;61774.03;5076294;28;20296;-67
2021/06/26 09:36:59;;;;;;;8.48;7.18;;;;;;;-139.48;100.00;61774.03;5076112;28;20054;-66
2021/06/26 09:39:44;;;;;;;7.15;6.38;;;;;;;-139.48;100.00;61774.03;5075336;28;20094;-67
2021/06/26 09:42:39;;;;;;;7.80;7.00;;;;;;;-139.48;100.00;61774.03;5061013;28;20052;-67
2021/06/26 09:45:23;;;;;;;7.85;6.97;;;;;;;-139.48;100.00;61774.03;5075727;28;20063;-68
2021/06/26 09:48:07;;;;;;;8.50;6.70;;;;;;;-139.48;100.00;61774.03;5060818;28;20113;-67
2021/06/26 09:50:51;;;;;;;;;;;;;;;-139.48;100.00;61774.03;5075200;28;20090;-67
2021/06/26 09:53:35;;;;;;;7.78;6.60;;;;;;;-139.48;100.00;61774.03;5074783;28;19923;-68
2021/06/26 09:56:19;;;;;;;8.98;6.78;;;;;;;-139.48;100.00;61774.03;5074716;28;20078;-67
2021/06/26 09:59:04;;;;;;;8.80;6.93;;;;;;;-139.48;100.00;61774.03;5060896;28;20048;-67
2021/06/26 10:01:48;;;;;;;8.50;6.75;;;;;;;-139.48;100.00;61774.03;5074655;28;20039;-68
2021/06/26 10:04:35;;;;;;;7.03;6.40;;;;;;;-139.48;100.00;61774.03;5074745;28;20516;-67
2021/06/26 10:07:19;;;;;;;9.52;6.38;;;;;;;-139.48;100.00;61774.03;5074572;28;20155;-67
2021/06/26 10:10:03;;;;;;;6.30;5.70;;;;;;;-139.48;100.00;61774.03;5074432;28;20046;-68
2021/06/26 10:12:48;;;;;;;6.97;6.20;;;;;;;-139.48;100.00;61774.03;5074477;28;20143;-65
2021/06/26 10:15:33;;;;;;;7.45;6.18;;;;;;;-139.48;100.00;61774.03;5060339;28;20109;-68
2021/06/26 10:18:18;;;;;;;7.20;6.43;;;;;;;-139.48;100.00;61774.03;5060286;28;20047;-67
2021/06/26 10:21:03;;;;;;;8.15;6.22;;;;;;;-139.48;100.00;61774.03;5074446;28;20063;-65
2021/06/26 10:23:47;;;;;;;7.13;6.43;;;;;;;-139.48;100.00;61774.03;5075462;28;20044;-68
2021/06/26 10:26:36;;;;;;;;;;;;;;;-139.48;100.00;61774.03;5075454;28;20097;-68
2021/06/26 10:29:33;;;;;;;6.63;5.95;;;;;;;-139.48;100.00;61774.03;5074238;28;19920;-68
2021/06/26 10:32:18;;;;;;;6.88;6.18;;;;;;;-139.48;100.00;61774.03;5060147;28;20114;-71
2021/06/26 10:35:11;;;;;;;6.50;5.82;;;;;;;-139.48;100.00;61774.03;5074166;28;20109;-67
2021/06/26 10:38:03;;;;;;;6.13;5.53;;;;;;;-139.48;100.00;61774.03;5075453;28;20063;-69
2021/06/26 10:40:52;;;;;;;6.20;5.60;;;;;;;-139.48;100.00;61774.03;5074134;28;20189;-69
2021/06/26 10:43:37;;;;;;;8.25;5.35;;;;;;;-139.48;100.00;61774.03;5074192;28;20162;-70
2021/06/26 10:46:21;;;;;;;7.50;5.75;;;;;;;-139.48;100.00;61774.03;5074043;28;20094;-69
2021/06/26 10:49:06;;;;;;;7.60;5.15;;;;;;;-139.48;100.00;61774.03;5074142;28;20472;-69
2021/06/26 10:51:50;;;;;;;6.82;5.78;;;;;;;-139.48;100.00;61774.03;5073997;28;20098;-70
2021/06/26 10:54:35;;;;;;;6.93;5.35;;;;;;;-139.48;100.00;61774.03;5059919;28;20055;-69
2021/06/26 10:57:19;;;;;;;6.22;5.63;;;;;;;-139.48;100.00;61774.03;5073614;28;20093;-69
2021/06/26 11:00:08;;;;;;;6.35;5.60;;;;;;;-139.48;100.00;61774.03;5073611;28;20591;-68
2021/06/26 11:02:52;;;;;;;8.50;6.10;;;;;;;-139.48;100.00;61774.03;5073926;28;20059;-70
2021/06/26 11:05:36;;;;;;;8.73;6.05;;;;;;;-139.48;100.00;61774.03;5073385;28;20127;-69
2021/06/26 11:08:21;;;;;;;6.70;6.10;;;;;;;-139.48;100.00;61774.03;5074927;28;20059;-68
2021/06/26 11:11:05;;;;;;;7.00;5.40;;;;;;;-139.48;100.00;61774.03;5073485;28;20409;-69
2021/06/26 11:13:49;;;;;;;6.97;6.28;;;;;;;-139.48;100.00;61774.03;5059390;28;20043;-68
2021/06/26 11:16:34;;;;;;;6.90;6.30;;;;;;;-139.48;100.00;61774.03;5059581;28;20458;-69
2021/06/26 11:19:19;;;;;;;8.20;6.68;;;;;;;-139.48;100.00;61774.03;5073403;28;20131;-69
2021/06/26 11:22:04;;;;;;;6.70;6.00;;;;;;;-139.48;100.00;61774.03;5058942;28;20044;-69
2021/06/26 11:24:48;;;;;;;6.10;5.50;;;;;;;-139.48;100.00;61774.03;5074620;28;20051;-69
2021/06/26 11:27:31;;;;;;;5.88;5.28;;;;;;;-139.48;100.00;61774.03;5059116;28;20512;-68
2021/06/26 11:30:16;;;;;;;6.55;5.75;;;;;;;-139.48;100.00;61774.03;5073302;28;20052;-68
2021/06/26 11:33:00;;;;;;;6.90;5.60;;;;;;;-139.48;100.00;61774.03;5074074;28;20063;-68
2021/06/26 11:35:44;;;;;;;6.40;5.68;;;;;;;-139.48;100.00;61774.03;5073089;28;20043;-68
2021/06/26 11:38:29;;;;;;;6.78;5.30;;;;;;;-139.48;100.00;61774.03;5073056;28;20551;-68
2021/06/26 11:41:13;;;;;;;6.20;5.47;;;;;;;-139.48;100.00;61774.03;5072893;28;20124;-69
2021/06/26 11:43:57;;;;;;;5.93;5.43;;;;;;;-139.48;100.00;61774.03;5073650;28;20135;-66
2021/06/26 11:46:41;;;;;;;6.15;5.50;;;;;;;-139.48;100.00;61774.03;5072234;28;20059;-68
2021/06/26 11:49:32;;;;;;;8.93;5.35;;;;;;;-139.48;100.00;61774.03;5072614;28;20048;-68
2021/06/26 11:52:16;;;;;;;5.72;5.10;;;;;;;-139.48;100.00;61774.03;5073450;28;20439;-67
2021/06/26 11:55:00;;;;;;;12.25;5.40;;;;;;;-139.48;100.00;61774.03;5072424;28;20093;-70
2021/06/26 11:57:44;;;;;;;5.45;4.95;;;;;;;-139.48;100.00;61774.03;5058183;28;20083;-67
2021/06/26 12:00:28;;;;;;;5.60;5.10;;;;;;;-139.48;100.00;61774.03;5073775;28;20091;-68
2021/06/26 12:03:17;;;;;;;5.72;5.22;;;;;;;-139.48;100.00;61774.03;5073564;28;20106;-67
2021/06/26 12:06:02;;;;;;;5.40;4.90;;;;;;;-139.48;100.00;61774.03;5058132;28;20083;-68
2021/06/26 12:08:54;;;;;;;6.43;5.38;;;;;;;-139.48;100.00;61774.03;5072348;28;20429;-68
2021/06/26 12:11:39;;;;;;;5.72;5.20;;;;;;;-139.48;100.00;61774.03;5072089;28;20405;-67
2021/06/26 12:14:31;;;;;;;5.60;5.10;;;;;;;-139.48;100.00;61774.03;5073319;28;20459;-68
2021/06/26 12:17:16;;;;;;;6.10;5.35;;;;;;;-139.48;100.00;61774.03;5071727;28;20101;-68
2021/06/26 12:20:09;;;;;;;6.72;4.65;;;;;;;-139.48;100.00;61774.03;5071925;28;20562;-68